createdAt,value
2018-12-25T00:08:27.242Z,8.50
2018-12-25T00:16:51.702Z,8.70
2018-12-25T00:19:22.032Z,7.85
2018-12-25T00:21:52.369Z,7.25
2018-12-25T00:24:42.938Z,7.40
2018-12-25T00:27:13.358Z,8.28
2018-12-25T00:30:22.629Z,5.60
2018-12-25T00:32:52.909Z,7.50
2018-12-25T00:35:23.690Z,6.15
2018-12-25T00:37:54.179Z,4.95
2018-12-25T00:40:24.541Z,7.53
2018-12-25T00:43:33.869Z,4.85
2018-12-25T00:46:04.277Z,6.28
2018-12-25T00:49:14.917Z,6.03
2018-12-25T00:51:45.498Z,5.40
2018-12-25T01:00:07.508Z,6.80
2018-12-25T01:02:38.034Z,11.95
2018-12-25T01:08:34.133Z,4.83
2018-12-25T01:11:04.607Z,3.70
2018-12-25T01:14:13.824Z,4.55
2018-12-25T01:17:21.584Z,4.95
2018-12-25T01:20:30.726Z,3.65
2018-12-25T01:23:01.036Z,3.62
2018-12-25T01:25:31.338Z,3.55
2018-12-25T01:28:01.830Z,4.78
2018-12-25T01:30:32.174Z,4.10
2018-12-25T01:33:02.457Z,3.83
2018-12-25T01:35:32.891Z,3.95
2018-12-25T01:40:58.849Z,4.85
2018-12-25T01:43:29.154Z,4.62
2018-12-25T01:45:59.434Z,5.17
2018-12-25T01:48:29.830Z,4.80
2018-12-25T01:51:00.206Z,4.80
2018-12-25T01:56:20.314Z,4.05
2018-12-25T01:58:50.592Z,4.12
2018-12-25T02:01:39.725Z,4.92
2018-12-25T02:04:30.184Z,3.55
2018-12-25T02:07:00.572Z,2.87
2018-12-25T02:12:17.351Z,4.30
2018-12-25T02:14:47.635Z,3.00
2018-12-25T02:17:18.010Z,3.45
2018-12-25T02:19:48.356Z,3.33
2018-12-25T02:22:37.338Z,3.20
2018-12-25T02:25:07.843Z,3.25
2018-12-25T02:30:36.830Z,3.10
2018-12-25T02:33:07.099Z,3.98
2018-12-25T02:35:37.383Z,3.65
2018-12-25T02:38:07.843Z,3.05
2018-12-25T02:40:38.119Z,2.25
2018-12-25T02:43:08.453Z,3.92
2018-12-25T02:45:38.762Z,3.60
2018-12-25T02:48:09.014Z,3.80
2018-12-25T02:50:39.349Z,4.15
2018-12-25T02:53:09.750Z,5.00
2018-12-25T02:55:40.100Z,3.98
2018-12-25T02:58:10.404Z,2.42
2018-12-25T03:00:40.805Z,2.90
2018-12-25T03:03:11.171Z,2.52
2018-12-25T03:09:08.947Z,2.80
2018-12-25T03:11:50.409Z,2.40
2018-12-25T03:14:20.958Z,2.17
2018-12-25T03:16:51.266Z,2.50
2018-12-25T03:19:21.527Z,2.92
2018-12-25T03:21:51.934Z,2.75
2018-12-25T03:24:22.314Z,2.15
2018-12-25T03:26:52.619Z,2.00
2018-12-25T03:29:22.971Z,2.10
2018-12-25T03:32:12.037Z,2.42
2018-12-25T03:34:42.385Z,2.42
2018-12-25T03:40:03.533Z,3.20
2018-12-25T03:42:34.043Z,2.27
2018-12-25T03:45:04.437Z,2.37
2018-12-25T03:47:34.893Z,2.87
2018-12-25T03:50:10.945Z,2.92
2018-12-25T03:52:37.656Z,2.50
2018-12-25T03:55:08.039Z,2.98
2018-12-25T03:57:38.813Z,2.47
2018-12-25T04:00:27.876Z,3.15
2018-12-25T04:06:12.724Z,2.62
2018-12-25T04:08:43.043Z,2.25
2018-12-25T04:11:13.484Z,3.77
2018-12-25T04:13:43.847Z,2.02
2018-12-25T04:16:32.939Z,2.67
2018-12-25T04:19:03.305Z,2.70
2018-12-25T04:21:33.598Z,2.60
2018-12-25T04:27:00.166Z,3.25
2018-12-25T04:29:30.504Z,3.62
2018-12-25T04:32:00.815Z,6.40
2018-12-25T04:34:31.159Z,3.62
2018-12-25T04:42:45.595Z,4.10
2018-12-25T04:45:15.915Z,3.55
2018-12-25T04:47:46.227Z,3.67
2018-12-25T04:50:16.497Z,3.10
2018-12-25T04:53:05.692Z,4.35
2018-12-25T04:55:35.992Z,3.12
2018-12-25T04:58:26.367Z,4.53
2018-12-25T05:00:56.646Z,6.17
2018-12-25T05:03:47.282Z,6.45
2018-12-25T05:06:17.561Z,4.40
2018-12-25T05:08:47.838Z,6.87
2018-12-25T05:11:18.677Z,6.10
2018-12-25T05:16:55.178Z,7.10
2018-12-25T05:25:12.773Z,5.92
2018-12-25T05:34:03.078Z,5.37
2018-12-25T05:36:33.509Z,3.45
2018-12-25T05:39:04.322Z,5.78
2018-12-25T05:41:34.860Z,5.85
2018-12-25T05:44:05.244Z,5.30
2018-12-25T05:46:35.692Z,4.00
2018-12-25T05:49:06.138Z,5.70
2018-12-25T05:51:37.035Z,5.12
2018-12-25T05:54:07.437Z,3.30
2018-12-25T05:56:38.003Z,3.52
2018-12-25T05:59:08.436Z,3.12
2018-12-25T06:01:38.731Z,3.00
2018-12-25T06:04:09.101Z,3.20
2018-12-25T06:06:39.724Z,4.05
2018-12-25T06:09:10.106Z,4.12
2018-12-25T06:11:40.452Z,3.20
2018-12-25T06:14:10.736Z,2.55
2018-12-25T06:16:41.549Z,3.00
2018-12-25T06:19:11.968Z,3.90
2018-12-25T06:21:42.340Z,3.75
2018-12-25T06:24:12.731Z,3.72
2018-12-25T06:26:43.140Z,4.03
2018-12-25T06:29:13.424Z,3.45
2018-12-25T06:31:43.731Z,3.17
2018-12-25T06:34:14.151Z,8.03
2018-12-25T06:36:44.459Z,3.50
2018-12-25T06:39:14.835Z,4.22
2018-12-25T06:41:45.341Z,3.22
2018-12-25T06:44:15.810Z,5.20
2018-12-25T06:46:46.326Z,3.30
2018-12-25T06:49:16.811Z,3.40
2018-12-25T06:51:47.325Z,3.65
2018-12-25T06:54:17.711Z,3.35
2018-12-25T06:56:48.249Z,2.87
2018-12-25T06:59:18.656Z,3.52
2018-12-25T07:01:49.038Z,3.42
2018-12-25T07:04:19.544Z,4.45
2018-12-25T07:06:50.608Z,3.52
2018-12-25T07:18:11.193Z,3.95
2018-12-25T07:26:35.915Z,6.00
2018-12-25T07:32:17.298Z,6.50
2018-12-25T07:34:47.632Z,7.90
2018-12-25T07:37:36.814Z,7.55
2018-12-25T07:43:38.860Z,6.78
2018-12-25T07:49:23.337Z,6.20
2018-12-25T07:52:13.811Z,4.50
2018-12-25T07:54:44.176Z,7.33
2018-12-25T07:57:14.556Z,5.00
2018-12-25T07:59:44.753Z,4.30
2018-12-25T08:02:15.283Z,8.00
2018-12-25T08:07:41.374Z,8.83
2018-12-25T08:13:01.828Z,15.78
2018-12-25T08:15:32.125Z,9.30
2018-12-25T08:20:58.794Z,9.45
2018-12-25T08:23:29.064Z,9.90
2018-12-25T08:25:59.438Z,6.65
2018-12-25T08:28:29.824Z,8.53
2018-12-25T08:31:00.144Z,6.97
2018-12-25T08:33:30.424Z,9.10
2018-12-25T08:36:00.825Z,9.65
2018-12-25T08:38:31.129Z,22.98
2018-12-25T08:41:01.489Z,12.10
2018-12-25T08:43:31.795Z,8.60
2018-12-25T08:46:02.044Z,9.13
2018-12-25T08:48:32.708Z,8.05
2018-12-25T08:51:03.182Z,11.08
2018-12-25T08:53:33.547Z,10.30
2018-12-25T08:56:06.686Z,10.75
2018-12-25T08:58:37.015Z,8.45
2018-12-25T09:01:07.779Z,11.12
2018-12-25T09:03:38.176Z,30.23
2018-12-25T09:06:08.557Z,20.77
2018-12-25T09:08:39.261Z,13.93
2018-12-25T09:11:09.518Z,11.10
2018-12-25T09:13:39.873Z,27.70
2018-12-25T09:16:28.953Z,24.02
2018-12-25T09:19:10.670Z,53.45
2018-12-25T09:21:46.215Z,25.92
2018-12-25T09:24:13.195Z,13.80
2018-12-25T09:26:43.587Z,15.28
2018-12-25T09:29:13.847Z,21.80
2018-12-25T09:31:44.102Z,12.07
2018-12-25T09:34:14.467Z,9.68
2018-12-25T09:36:44.785Z,8.85
2018-12-25T09:39:15.069Z,16.20
2018-12-25T09:41:45.435Z,11.48
2018-12-25T09:44:15.781Z,11.30
2018-12-25T09:53:03.620Z,17.00
2018-12-25T09:55:34.513Z,15.85
2018-12-25T09:58:04.822Z,9.95
2018-12-25T10:00:35.211Z,9.70
2018-12-25T10:06:15.446Z,10.90
2018-12-25T10:08:45.755Z,13.28
2018-12-25T10:11:16.778Z,11.15
2018-12-25T10:13:47.122Z,9.05
2018-12-25T10:16:36.202Z,8.85
2018-12-25T10:19:16.804Z,5.95
2018-12-25T10:21:47.172Z,7.37
2018-12-25T10:24:36.614Z,10.08
2018-12-25T10:27:07.030Z,11.68
2018-12-25T10:29:37.372Z,10.78
2018-12-25T10:35:10.033Z,13.50
2018-12-25T10:37:40.569Z,13.55
2018-12-25T10:40:12.603Z,17.17
2018-12-25T10:45:41.337Z,15.45
2018-12-25T10:48:11.618Z,18.20
2018-12-25T10:50:41.978Z,30.08
2018-12-25T10:53:12.342Z,22.55
2018-12-25T10:55:42.661Z,15.58
2018-12-25T10:58:13.268Z,11.12
2018-12-25T11:04:03.740Z,8.63
2018-12-25T11:06:54.345Z,13.13
2018-12-25T11:09:24.660Z,26.02
2018-12-25T11:11:54.961Z,14.07
2018-12-25T11:14:25.267Z,12.80
2018-12-25T11:16:55.962Z,14.07
2018-12-25T11:19:37.554Z,16.80
2018-12-25T11:22:08.014Z,12.63
2018-12-25T11:24:38.306Z,14.45
2018-12-25T11:27:08.574Z,9.35
2018-12-25T11:29:38.866Z,12.78
2018-12-25T11:32:09.155Z,13.38
2018-12-25T11:34:39.537Z,10.75
2018-12-25T11:37:09.872Z,15.25
2018-12-25T11:39:40.140Z,16.97
2018-12-25T11:44:46.072Z,17.67
2018-12-25T11:47:16.397Z,14.93
2018-12-25T11:49:46.761Z,13.80
2018-12-25T11:52:17.091Z,15.48
2018-12-25T11:54:47.532Z,15.70
2018-12-25T11:57:17.824Z,19.05
2018-12-25T11:59:48.282Z,19.60
2018-12-25T12:02:18.684Z,23.52
2018-12-25T12:04:48.992Z,23.20
2018-12-25T12:10:14.794Z,18.52
2018-12-25T12:12:45.106Z,19.15
2018-12-25T12:15:34.247Z,20.97
2018-12-25T12:18:05.028Z,14.38
2018-12-25T12:20:35.309Z,15.35
2018-12-25T12:23:05.733Z,13.45
2018-12-25T12:25:36.007Z,12.10
2018-12-25T12:28:06.431Z,15.00
2018-12-25T12:30:36.790Z,14.18
2018-12-25T12:33:07.087Z,17.75
2018-12-25T12:35:37.824Z,18.17
2018-12-25T12:41:12.850Z,16.93
2018-12-25T12:43:43.318Z,25.40
2018-12-25T12:46:13.760Z,23.15
2018-12-25T12:48:44.335Z,22.40
2018-12-25T12:51:14.892Z,16.37
2018-12-25T12:53:45.258Z,14.35
2018-12-25T12:56:15.765Z,15.35
2018-12-25T12:58:46.264Z,17.30
2018-12-25T13:01:16.628Z,13.75
2018-12-25T13:03:47.130Z,13.13
2018-12-25T13:06:17.600Z,14.00
2018-12-25T13:08:48.019Z,13.62
2018-12-25T13:11:18.538Z,14.50
2018-12-25T13:13:48.930Z,15.10
2018-12-25T13:16:19.332Z,18.40
2018-12-25T13:18:49.973Z,14.40
2018-12-25T13:21:20.752Z,17.02
2018-12-25T13:23:51.165Z,14.25
2018-12-25T13:26:22.099Z,12.68
2018-12-25T13:28:52.552Z,12.98
2018-12-25T13:31:23.045Z,12.18
2018-12-25T13:33:53.519Z,8.25
2018-12-25T13:36:23.998Z,7.78
2018-12-25T13:38:54.450Z,9.40
2018-12-25T13:41:25.643Z,8.68
2018-12-25T13:43:56.009Z,12.35
2018-12-25T13:46:26.451Z,26.37
2018-12-25T13:48:57.004Z,34.73
2018-12-25T13:51:27.468Z,30.02
2018-12-25T13:53:57.817Z,21.57
2018-12-25T13:56:28.330Z,25.15
2018-12-25T13:58:58.756Z,18.12
2018-12-25T14:01:29.071Z,17.37
2018-12-25T14:03:59.594Z,15.15
2018-12-25T14:06:29.962Z,14.45
2018-12-25T14:09:00.307Z,15.25
2018-12-25T14:11:31.094Z,9.85
2018-12-25T14:14:01.522Z,11.40
2018-12-25T14:16:31.860Z,10.82
2018-12-25T14:19:02.375Z,13.28
2018-12-25T14:21:32.762Z,12.05
2018-12-25T14:24:03.149Z,10.75
2018-12-25T14:26:33.776Z,12.58
2018-12-25T14:29:04.140Z,12.53
2018-12-25T14:31:34.490Z,12.78
2018-12-25T14:34:04.931Z,15.45
2018-12-25T14:36:35.334Z,16.57
2018-12-25T14:39:25.884Z,14.33
2018-12-25T14:41:56.214Z,13.85
2018-12-25T14:44:26.502Z,13.32
2018-12-25T14:49:51.489Z,14.65
2018-12-25T14:52:21.840Z,14.33
2018-12-25T14:54:53.725Z,17.48
2018-12-25T14:57:24.710Z,12.98
2018-12-25T14:59:54.987Z,11.65
2018-12-25T15:02:25.307Z,13.68
2018-12-25T15:07:31.205Z,18.30
2018-12-25T15:10:01.629Z,21.80
2018-12-25T15:12:31.958Z,20.97
2018-12-25T15:15:21.097Z,22.10
2018-12-25T15:17:51.370Z,19.52
2018-12-25T15:20:21.732Z,22.77
2018-12-25T15:22:57.418Z,17.95
2018-12-25T15:28:36.979Z,20.70
2018-12-25T15:31:46.119Z,19.23
2018-12-25T15:34:29.142Z,21.95
2018-12-25T15:36:59.440Z,19.40
2018-12-25T15:46:14.630Z,16.15
2018-12-25T15:54:18.459Z,15.58
2018-12-25T15:56:48.786Z,10.93
2018-12-25T15:59:19.038Z,11.18
2018-12-25T16:02:06.763Z,10.10
2018-12-25T16:07:58.178Z,13.20
2018-12-25T16:13:37.777Z,19.12
2018-12-25T16:16:08.057Z,15.50
2018-12-25T16:18:57.189Z,15.80
2018-12-25T16:21:27.536Z,11.35
2018-12-25T16:24:09.216Z,9.63
2018-12-25T16:29:24.943Z,13.25
2018-12-25T16:31:55.204Z,16.77
2018-12-25T16:37:20.539Z,30.17
2018-12-25T16:39:50.969Z,15.75
2018-12-25T16:42:21.264Z,16.10
2018-12-25T16:44:51.587Z,18.23
2018-12-25T16:47:22.024Z,12.78
2018-12-25T16:50:12.344Z,16.87
2018-12-25T16:52:42.819Z,12.00
2018-12-25T16:58:08.747Z,13.90
2018-12-25T17:00:39.031Z,11.63
2018-12-25T17:08:42.943Z,16.77
2018-12-25T17:11:13.286Z,18.10
2018-12-25T17:13:43.445Z,17.98
2018-12-25T17:16:30.882Z,13.50
2018-12-25T17:19:01.392Z,12.53
2018-12-25T17:21:31.777Z,13.30
2018-12-25T17:24:02.609Z,8.98
2018-12-25T17:26:33.191Z,7.95
2018-12-25T17:29:03.675Z,10.72
2018-12-25T17:31:34.096Z,9.58
2018-12-25T17:34:04.475Z,9.78
2018-12-25T17:36:34.845Z,8.88
2018-12-25T17:39:25.979Z,8.80
2018-12-25T17:41:56.273Z,9.53
2018-12-25T17:44:26.609Z,8.75
2018-12-25T17:49:32.477Z,11.65
2018-12-25T17:52:02.781Z,11.35
2018-12-25T17:54:33.217Z,9.58
2018-12-25T17:57:22.342Z,10.85
2018-12-25T18:00:11.350Z,10.90
2018-12-25T18:02:41.762Z,14.85
2018-12-25T18:08:26.186Z,14.53
2018-12-25T18:10:56.495Z,12.58
2018-12-25T18:13:26.768Z,11.18
2018-12-25T18:15:57.202Z,12.55
2018-12-25T18:19:06.266Z,11.97
2018-12-25T18:21:47.545Z,11.90
2018-12-25T18:24:19.355Z,9.83
2018-12-25T18:26:50.119Z,7.58
2018-12-25T18:29:20.522Z,8.68
2018-12-25T18:35:00.170Z,7.87
2018-12-25T18:37:31.135Z,9.75
2018-12-25T18:42:50.758Z,8.13
2018-12-25T18:45:21.088Z,10.63
2018-12-25T18:51:12.555Z,9.90
2018-12-25T18:56:57.354Z,9.43
2018-12-25T18:59:47.850Z,9.95
2018-12-25T19:02:18.314Z,8.90
2018-12-25T19:04:48.616Z,10.40
2018-12-25T19:07:18.917Z,10.70
2018-12-25T19:09:49.256Z,13.53
2018-12-25T19:12:19.523Z,13.08
2018-12-25T19:15:27.267Z,15.40
2018-12-25T19:24:02.884Z,13.90
2018-12-25T19:29:29.236Z,16.05
2018-12-25T19:34:55.194Z,15.35
2018-12-25T19:37:25.438Z,11.63
2018-12-25T19:39:55.868Z,13.72
2018-12-25T19:51:26.013Z,16.35
2018-12-25T19:53:56.409Z,12.18
2018-12-25T19:59:27.200Z,8.18
2018-12-25T20:01:57.485Z,11.63
2018-12-25T20:07:56.993Z,13.48
2018-12-25T20:10:49.436Z,13.40
2018-12-25T20:13:57.242Z,13.03
2018-12-25T20:17:04.943Z,11.68
2018-12-25T20:20:12.704Z,10.03
2018-12-25T20:23:18.474Z,13.28
2018-12-25T20:26:26.513Z,13.22
2018-12-25T20:29:34.193Z,14.50
2018-12-25T20:32:41.988Z,11.97
2018-12-25T20:39:11.661Z,8.65
2018-12-25T20:41:53.152Z,11.30
2018-12-25T20:45:01.366Z,8.93
2018-12-25T20:48:09.093Z,13.40
2018-12-25T20:51:17.301Z,10.93
2018-12-25T20:54:25.215Z,9.15
2018-12-25T20:57:33.063Z,8.23
2018-12-25T21:00:40.897Z,9.00
2018-12-25T21:03:48.620Z,10.70
2018-12-25T21:06:56.365Z,10.08
2018-12-25T21:10:04.199Z,9.53
2018-12-25T21:12:56.045Z,8.28
2018-12-25T21:27:50.820Z,17.40
2018-12-25T21:33:16.218Z,14.28
2018-12-25T21:35:46.530Z,12.20
2018-12-25T21:38:16.862Z,12.43
2018-12-25T21:41:07.290Z,15.65
2018-12-25T21:43:57.649Z,11.50
2018-12-25T21:52:39.377Z,11.38
2018-12-25T21:55:18.359Z,8.15
2018-12-25T22:00:28.804Z,9.15
2018-12-25T22:02:59.190Z,13.62
2018-12-25T22:05:29.553Z,12.10
2018-12-25T22:07:59.928Z,9.28
2018-12-25T22:10:30.202Z,7.75
2018-12-25T22:13:00.507Z,8.90
2018-12-25T22:30:04.526Z,8.05
2018-12-25T22:36:00.966Z,10.98
2018-12-25T22:38:31.395Z,8.98
2018-12-25T22:41:01.684Z,8.40
2018-12-25T22:43:32.124Z,8.30
2018-12-25T22:51:53.742Z,14.83
2018-12-25T22:55:02.900Z,9.73
2018-12-25T22:58:12.094Z,8.88
2018-12-25T23:00:42.518Z,9.28
2018-12-25T23:03:12.778Z,9.10
2018-12-25T23:11:45.449Z,8.43
2018-12-25T23:23:11.883Z,11.12
2018-12-25T23:29:02.012Z,13.45
2018-12-25T23:34:34.408Z,9.35
2018-12-25T23:37:43.460Z,9.75
2018-12-25T23:40:32.811Z,14.10
2018-12-25T23:43:03.199Z,14.15
2018-12-25T23:45:33.482Z,17.40
2018-12-25T23:50:58.727Z,17.37
2018-12-25T23:53:29.167Z,17.95
2018-12-25T23:55:59.437Z,13.98
2018-12-25T23:58:48.583Z,14.13
